createdAt,value
2022-11-30T00:00:43.264Z,0.00
2022-11-30T00:01:43.263Z,0.00
2022-11-30T00:02:43.282Z,0.00
2022-11-30T00:03:43.226Z,0.00
2022-11-30T00:04:43.283Z,0.00
2022-11-30T00:05:43.196Z,0.00
2022-11-30T00:06:43.168Z,0.00
2022-11-30T00:07:43.238Z,0.00
2022-11-30T00:08:43.164Z,0.00
2022-11-30T00:09:43.158Z,0.00
2022-11-30T00:10:43.138Z,0.00
2022-11-30T00:11:43.149Z,0.00
2022-11-30T00:12:43.179Z,0.00
2022-11-30T00:13:43.191Z,0.00
2022-11-30T00:14:43.241Z,0.00
2022-11-30T00:15:43.099Z,0.00
2022-11-30T00:16:43.157Z,0.00
2022-11-30T00:17:43.093Z,0.00
2022-11-30T00:18:43.077Z,0.00
2022-11-30T00:19:43.074Z,0.00
2022-11-30T00:20:43.037Z,0.00
2022-11-30T00:21:43.059Z,0.00
2022-11-30T00:22:43.023Z,0.00
2022-11-30T00:23:43.017Z,0.00
2022-11-30T00:24:42.990Z,0.00
2022-11-30T00:25:42.993Z,0.00
2022-11-30T00:26:43.015Z,0.00
2022-11-30T00:27:42.984Z,0.00
2022-11-30T00:28:42.967Z,0.00
2022-11-30T00:29:42.953Z,0.00
2022-11-30T00:30:43.012Z,0.00
2022-11-30T00:31:42.917Z,0.00
2022-11-30T00:32:42.918Z,0.00
2022-11-30T00:33:42.928Z,0.00
2022-11-30T00:34:42.884Z,0.00
2022-11-30T00:35:42.917Z,0.00
2022-11-30T00:36:42.883Z,0.00
2022-11-30T00:37:42.885Z,0.00
2022-11-30T00:38:42.874Z,0.00
2022-11-30T00:39:42.869Z,0.00
2022-11-30T00:40:42.835Z,0.00
2022-11-30T00:41:42.837Z,0.00
2022-11-30T00:42:42.826Z,0.00
2022-11-30T00:43:42.892Z,0.00
2022-11-30T00:44:42.827Z,0.00
2022-11-30T00:45:42.873Z,0.00
2022-11-30T00:46:42.787Z,0.00
2022-11-30T00:47:42.753Z,0.00
2022-11-30T00:48:42.804Z,0.00
2022-11-30T00:49:42.737Z,0.00
2022-11-30T00:50:42.746Z,0.00
2022-11-30T00:51:42.748Z,0.00
2022-11-30T00:52:42.727Z,0.00
2022-11-30T00:53:42.821Z,0.00
2022-11-30T00:54:42.807Z,0.00
2022-11-30T00:55:42.681Z,0.00
2022-11-30T00:56:42.706Z,0.00
2022-11-30T00:57:42.695Z,0.00
2022-11-30T00:58:42.671Z,0.00
2022-11-30T00:59:42.658Z,0.00
2022-11-30T01:00:42.639Z,0.00
2022-11-30T01:01:42.678Z,0.00
2022-11-30T01:02:42.710Z,0.00
2022-11-30T01:03:42.632Z,0.00
2022-11-30T01:04:42.596Z,0.00
2022-11-30T01:05:42.596Z,0.00
2022-11-30T01:06:42.586Z,0.00
2022-11-30T01:07:42.642Z,0.00
2022-11-30T01:08:42.566Z,0.00
2022-11-30T01:09:42.546Z,0.00
2022-11-30T01:10:42.537Z,0.00
2022-11-30T01:11:42.559Z,0.00
2022-11-30T01:12:42.518Z,0.00
2022-11-30T01:13:42.509Z,0.00
2022-11-30T01:14:42.518Z,0.00
2022-11-30T01:15:42.558Z,0.00
2022-11-30T01:16:42.516Z,0.00
2022-11-30T01:17:42.462Z,0.00
2022-11-30T01:18:42.502Z,0.00
2022-11-30T01:19:42.489Z,0.00
2022-11-30T01:20:42.454Z,0.00
2022-11-30T01:21:42.425Z,0.00
2022-11-30T01:22:42.433Z,0.00
2022-11-30T01:23:42.389Z,0.00
2022-11-30T01:24:42.390Z,0.00
2022-11-30T01:25:42.444Z,0.00
2022-11-30T01:26:42.367Z,0.00
2022-11-30T01:27:42.400Z,0.00
2022-11-30T01:28:42.350Z,0.00
2022-11-30T01:29:42.371Z,0.00
2022-11-30T01:30:42.577Z,0.00
2022-11-30T01:31:42.340Z,0.00
2022-11-30T01:32:42.321Z,0.00
2022-11-30T01:33:42.314Z,0.00
2022-11-30T01:34:42.342Z,0.00
2022-11-30T01:35:42.298Z,0.00
2022-11-30T01:36:42.291Z,0.00
2022-11-30T01:37:42.294Z,0.00
2022-11-30T01:38:42.275Z,0.00
2022-11-30T01:39:42.261Z,0.00
2022-11-30T01:40:42.256Z,0.00
2022-11-30T01:41:42.264Z,0.00
2022-11-30T01:42:42.901Z,0.00
2022-11-30T01:43:42.215Z,0.00
2022-11-30T01:44:42.210Z,0.00
2022-11-30T01:45:42.236Z,0.00
2022-11-30T01:46:42.171Z,0.00
2022-11-30T01:47:42.195Z,0.00
2022-11-30T01:48:42.170Z,0.00
2022-11-30T01:49:42.159Z,0.00
2022-11-30T01:50:42.143Z,0.00
2022-11-30T01:51:42.108Z,0.00
2022-11-30T01:52:42.108Z,0.00
2022-11-30T01:53:42.124Z,0.00
2022-11-30T01:54:42.137Z,0.00
2022-11-30T01:55:42.107Z,0.00
2022-11-30T01:56:42.088Z,0.00
2022-11-30T01:57:42.065Z,0.00
2022-11-30T01:58:42.067Z,0.00
2022-11-30T01:59:42.057Z,0.00
2022-11-30T02:00:42.025Z,0.00
2022-11-30T02:01:42.120Z,0.00
2022-11-30T02:02:42.100Z,0.00
2022-11-30T02:03:42.084Z,0.00
2022-11-30T02:04:42.001Z,0.00
2022-11-30T02:05:42.010Z,0.00
2022-11-30T02:06:41.993Z,0.00
2022-11-30T02:07:42.148Z,0.00
2022-11-30T02:08:42.039Z,0.00
2022-11-30T02:09:42.063Z,0.00
2022-11-30T02:10:42.098Z,0.00
2022-11-30T02:11:41.926Z,0.00
2022-11-30T02:12:42.026Z,0.00
2022-11-30T02:13:41.996Z,0.00
2022-11-30T02:14:41.903Z,0.00
2022-11-30T02:15:41.979Z,0.00
2022-11-30T02:16:41.900Z,0.00
2022-11-30T02:17:41.947Z,0.00
2022-11-30T02:18:41.867Z,0.00
2022-11-30T02:19:42.560Z,0.00
2022-11-30T02:20:41.847Z,0.00
2022-11-30T02:21:42.506Z,0.00
2022-11-30T02:22:41.860Z,0.00
2022-11-30T02:23:42.827Z,0.00
2022-11-30T02:24:41.796Z,0.00
2022-11-30T02:25:41.982Z,0.00
2022-11-30T02:26:41.796Z,0.00
2022-11-30T02:27:42.457Z,0.00
2022-11-30T02:28:41.779Z,0.00
2022-11-30T02:29:41.873Z,0.00
2022-11-30T02:30:41.787Z,0.00
2022-11-30T02:31:41.779Z,0.00
2022-11-30T02:32:41.709Z,0.00
2022-11-30T02:33:41.789Z,0.00
2022-11-30T02:34:41.709Z,0.00
2022-11-30T02:35:42.399Z,0.00
2022-11-30T02:36:41.677Z,0.00
2022-11-30T02:37:41.688Z,0.00
2022-11-30T02:38:41.679Z,0.00
2022-11-30T02:39:41.678Z,0.00
2022-11-30T02:40:41.640Z,0.00
2022-11-30T02:41:41.655Z,0.00
2022-11-30T02:42:41.658Z,0.00
2022-11-30T02:43:41.646Z,0.00
2022-11-30T02:44:41.619Z,0.00
2022-11-30T02:45:41.611Z,0.00
2022-11-30T02:46:41.603Z,0.00
2022-11-30T02:47:41.562Z,0.00
2022-11-30T02:48:41.566Z,0.00
2022-11-30T02:49:41.570Z,0.00
2022-11-30T02:50:41.552Z,0.00
2022-11-30T02:51:41.521Z,0.00
2022-11-30T02:52:41.539Z,0.00
2022-11-30T02:53:41.560Z,0.00
2022-11-30T02:54:41.510Z,0.00
2022-11-30T02:55:41.526Z,0.00
2022-11-30T02:56:41.541Z,0.00
2022-11-30T02:57:41.459Z,0.00
2022-11-30T02:58:41.490Z,0.00
2022-11-30T02:59:41.464Z,0.00
2022-11-30T03:00:41.472Z,0.00
2022-11-30T03:01:41.478Z,0.00
2022-11-30T03:02:41.498Z,0.00
2022-11-30T03:03:41.436Z,0.00
2022-11-30T03:04:41.405Z,0.00
2022-11-30T03:05:41.462Z,0.00
2022-11-30T03:06:41.384Z,0.00
2022-11-30T03:07:41.451Z,0.00
2022-11-30T03:08:41.398Z,0.00
2022-11-30T03:09:41.395Z,0.00
2022-11-30T03:10:41.374Z,0.00
2022-11-30T03:11:41.345Z,0.00
2022-11-30T03:12:41.313Z,0.00
2022-11-30T03:13:41.314Z,0.00
2022-11-30T03:14:41.324Z,0.00
2022-11-30T03:15:41.319Z,0.00
2022-11-30T03:16:41.323Z,0.00
2022-11-30T03:17:41.306Z,0.00
2022-11-30T03:18:41.279Z,0.00
2022-11-30T03:19:41.255Z,0.00
2022-11-30T03:20:41.256Z,0.00
2022-11-30T03:21:41.236Z,0.00
2022-11-30T03:22:41.219Z,0.00
2022-11-30T03:23:41.228Z,0.00
2022-11-30T03:24:41.228Z,0.00
2022-11-30T03:25:41.215Z,0.00
2022-11-30T03:26:41.176Z,0.00
2022-11-30T03:27:41.175Z,0.00
2022-11-30T03:28:41.190Z,0.00
2022-11-30T03:29:41.195Z,0.00
2022-11-30T03:30:41.146Z,0.00
2022-11-30T03:31:41.161Z,0.00
2022-11-30T03:32:41.128Z,0.00
2022-11-30T03:33:41.154Z,0.00
2022-11-30T03:34:41.145Z,0.00
2022-11-30T03:35:41.126Z,0.00
2022-11-30T03:36:41.081Z,0.00
2022-11-30T03:37:41.114Z,0.00
2022-11-30T03:38:41.068Z,0.00
2022-11-30T03:39:41.095Z,0.00
2022-11-30T03:40:41.078Z,0.00
2022-11-30T03:41:41.029Z,0.00
2022-11-30T03:42:41.020Z,0.00
2022-11-30T03:43:41.034Z,0.00
2022-11-30T03:44:41.000Z,0.00
2022-11-30T03:45:41.046Z,0.00
2022-11-30T03:46:41.086Z,0.00
2022-11-30T03:47:40.999Z,0.00
2022-11-30T03:48:41.001Z,0.00
2022-11-30T03:49:40.970Z,0.00
2022-11-30T03:50:40.948Z,0.00
2022-11-30T03:51:40.948Z,0.00
2022-11-30T03:52:40.933Z,0.00
2022-11-30T03:53:40.928Z,0.00
2022-11-30T03:54:40.920Z,0.00
2022-11-30T03:55:40.915Z,0.00
2022-11-30T03:56:40.920Z,0.00
2022-11-30T03:57:40.902Z,0.00
2022-11-30T03:58:40.871Z,0.00
2022-11-30T03:59:40.857Z,0.00
2022-11-30T04:00:40.859Z,0.00
2022-11-30T04:01:40.830Z,0.00
2022-11-30T04:02:44.657Z,0.00
2022-11-30T04:03:40.827Z,0.00
2022-11-30T04:04:40.820Z,0.00
2022-11-30T04:05:40.823Z,0.00
2022-11-30T04:06:40.833Z,0.00
2022-11-30T04:07:40.848Z,0.00
2022-11-30T04:08:40.830Z,0.00
2022-11-30T04:09:40.771Z,0.00
2022-11-30T04:10:40.799Z,0.00
2022-11-30T04:11:40.725Z,0.00
2022-11-30T04:12:40.724Z,0.00
2022-11-30T04:13:40.712Z,0.00
2022-11-30T04:14:40.732Z,0.00
2022-11-30T04:15:40.742Z,0.00
2022-11-30T04:16:40.720Z,0.00
2022-11-30T04:17:40.693Z,0.00
2022-11-30T04:18:40.650Z,0.00
2022-11-30T04:19:40.641Z,0.00
2022-11-30T04:20:40.884Z,0.00
2022-11-30T04:21:40.671Z,0.00
2022-11-30T04:22:40.652Z,0.00
2022-11-30T04:23:40.622Z,0.00
2022-11-30T04:24:40.635Z,0.00
2022-11-30T04:25:40.585Z,0.00
2022-11-30T04:26:40.611Z,0.00
2022-11-30T04:27:41.266Z,0.00
2022-11-30T04:28:40.620Z,0.00
2022-11-30T04:29:40.564Z,0.00
2022-11-30T04:30:40.604Z,0.00
2022-11-30T04:31:40.580Z,0.00
2022-11-30T04:32:40.523Z,0.00
2022-11-30T04:33:40.538Z,0.00
2022-11-30T04:34:40.536Z,0.00
2022-11-30T04:35:40.486Z,0.00
2022-11-30T04:36:40.590Z,0.00
2022-11-30T04:37:40.465Z,0.00
2022-11-30T04:38:40.486Z,0.00
2022-11-30T04:39:40.467Z,0.00
2022-11-30T04:40:40.437Z,0.00
2022-11-30T04:41:40.454Z,0.00
2022-11-30T04:42:40.439Z,0.00
2022-11-30T04:43:40.406Z,0.00
2022-11-30T04:44:40.411Z,0.00
2022-11-30T04:45:40.463Z,0.00
2022-11-30T04:46:40.471Z,0.00
2022-11-30T04:47:40.387Z,0.00
2022-11-30T04:48:40.375Z,0.00
2022-11-30T04:49:40.377Z,0.00
2022-11-30T04:50:40.357Z,0.00
2022-11-30T04:51:40.367Z,0.00
2022-11-30T04:52:40.346Z,0.00
2022-11-30T04:53:40.306Z,0.00
2022-11-30T04:54:40.321Z,0.00
2022-11-30T04:55:40.287Z,0.00
2022-11-30T04:56:40.287Z,0.00
2022-11-30T04:57:40.293Z,0.00
2022-11-30T04:58:40.303Z,0.00
2022-11-30T04:59:40.297Z,0.00
2022-11-30T05:00:40.206Z,0.00
2022-11-30T05:01:40.259Z,0.00
2022-11-30T05:02:40.265Z,0.00
2022-11-30T05:03:40.229Z,0.00
2022-11-30T05:04:40.235Z,0.00
2022-11-30T05:05:40.276Z,0.00
2022-11-30T05:06:40.199Z,0.00
2022-11-30T05:07:40.236Z,0.00
2022-11-30T05:08:40.163Z,0.00
2022-11-30T05:09:40.212Z,0.00
2022-11-30T05:10:40.157Z,0.00
2022-11-30T05:11:40.147Z,0.00
2022-11-30T05:12:40.180Z,0.00
2022-11-30T05:13:40.133Z,0.00
2022-11-30T05:14:40.159Z,0.00
2022-11-30T05:15:40.106Z,0.00
2022-11-30T05:16:40.125Z,0.00
2022-11-30T05:17:40.100Z,0.00
2022-11-30T05:18:40.088Z,0.00
2022-11-30T05:19:40.066Z,0.00
2022-11-30T05:20:40.001Z,0.00
2022-11-30T05:21:45.355Z,0.00
2022-11-30T05:22:41.008Z,0.00
2022-11-30T05:23:40.039Z,0.00
2022-11-30T05:24:40.018Z,0.00
2022-11-30T05:25:40.035Z,0.00
2022-11-30T05:26:39.994Z,0.00
2022-11-30T05:27:39.987Z,0.00
2022-11-30T05:28:39.922Z,0.00
2022-11-30T05:29:40.002Z,0.00
2022-11-30T05:30:39.952Z,0.00
2022-11-30T05:31:40.090Z,0.00
2022-11-30T05:32:40.119Z,0.00
2022-11-30T05:33:40.074Z,0.00
2022-11-30T05:34:50.123Z,0.00
2022-11-30T05:35:40.875Z,0.00
2022-11-30T05:36:39.905Z,0.00
2022-11-30T05:37:40.841Z,0.00
2022-11-30T05:38:39.883Z,0.00
2022-11-30T05:39:39.975Z,0.00
2022-11-30T05:40:39.882Z,0.00
2022-11-30T05:41:39.961Z,0.00
2022-11-30T05:42:39.843Z,0.00
2022-11-30T05:43:40.103Z,0.00
2022-11-30T05:44:39.803Z,0.00
2022-11-30T05:45:39.824Z,0.00
2022-11-30T05:46:41.217Z,0.00
2022-11-30T05:47:39.827Z,0.00
2022-11-30T05:48:39.755Z,0.00
2022-11-30T05:49:39.785Z,0.00
2022-11-30T05:50:39.692Z,0.00
2022-11-30T05:51:39.748Z,0.00
2022-11-30T05:52:39.663Z,0.00
2022-11-30T05:53:39.765Z,0.00
2022-11-30T05:54:39.723Z,0.00
2022-11-30T05:55:39.684Z,0.00
2022-11-30T05:56:39.703Z,0.00
2022-11-30T05:57:39.707Z,0.00
2022-11-30T05:58:39.645Z,0.00
2022-11-30T05:59:39.644Z,0.00
2022-11-30T06:00:39.670Z,0.00
2022-11-30T06:01:39.775Z,0.00
2022-11-30T06:02:39.717Z,0.00
2022-11-30T06:03:39.637Z,0.00
2022-11-30T06:04:39.618Z,0.00
2022-11-30T06:05:39.587Z,0.00
2022-11-30T06:06:39.538Z,0.00
2022-11-30T06:07:39.663Z,0.00
2022-11-30T06:08:39.504Z,0.00
2022-11-30T06:09:39.554Z,0.00
2022-11-30T06:10:39.585Z,0.00
2022-11-30T06:11:39.563Z,0.00
2022-11-30T06:12:39.499Z,0.00
2022-11-30T06:13:39.486Z,0.00
2022-11-30T06:14:39.481Z,0.00
2022-11-30T06:15:39.557Z,0.00
2022-11-30T06:16:39.504Z,0.00
2022-11-30T06:17:39.448Z,0.00
2022-11-30T06:18:39.469Z,0.00
2022-11-30T06:19:39.427Z,0.00
2022-11-30T06:20:39.447Z,0.00
2022-11-30T06:21:39.421Z,0.00
2022-11-30T06:22:39.479Z,0.00
2022-11-30T06:23:39.471Z,0.00
2022-11-30T06:24:39.685Z,0.00
2022-11-30T06:25:39.438Z,0.00
2022-11-30T06:26:39.509Z,0.00
2022-11-30T06:27:39.410Z,0.00
2022-11-30T06:28:40.605Z,0.00
2022-11-30T06:29:39.366Z,0.00
2022-11-30T06:30:39.314Z,0.00
2022-11-30T06:31:39.321Z,0.00
2022-11-30T06:32:39.310Z,0.00
2022-11-30T06:33:39.791Z,0.00
2022-11-30T06:34:39.274Z,0.00
2022-11-30T06:35:39.379Z,0.00
2022-11-30T06:36:39.258Z,0.00
2022-11-30T06:37:39.270Z,0.00
2022-11-30T06:38:39.265Z,0.00
2022-11-30T06:40:40.228Z,0.00
2022-11-30T06:41:39.326Z,0.00
2022-11-30T06:42:39.192Z,0.00
2022-11-30T06:43:39.162Z,0.00
2022-11-30T06:44:39.191Z,0.00
2022-11-30T06:45:39.221Z,0.00
2022-11-30T06:46:39.195Z,0.00
2022-11-30T06:47:39.180Z,0.00
2022-11-30T06:48:39.159Z,0.00
2022-11-30T06:49:39.192Z,0.00
2022-11-30T06:50:39.188Z,0.00
2022-11-30T06:51:39.087Z,0.00
2022-11-30T06:52:39.159Z,0.00
2022-11-30T06:53:39.079Z,0.00
2022-11-30T06:54:39.141Z,0.00
2022-11-30T06:55:39.073Z,0.00
2022-11-30T06:56:39.159Z,0.00
2022-11-30T06:57:39.052Z,0.00
2022-11-30T06:58:39.053Z,0.00
2022-11-30T06:59:39.054Z,0.00
2022-11-30T07:00:39.108Z,0.00
2022-11-30T07:01:38.992Z,0.00
2022-11-30T07:02:39.028Z,0.00
2022-11-30T07:03:39.044Z,0.00
2022-11-30T07:04:39.027Z,0.00
2022-11-30T07:05:38.965Z,0.00
2022-11-30T07:06:38.935Z,0.00
2022-11-30T07:07:38.981Z,0.00
2022-11-30T07:08:38.952Z,0.00
2022-11-30T07:09:38.955Z,0.00
2022-11-30T07:10:38.922Z,0.00
2022-11-30T07:11:38.976Z,5.62
2022-11-30T07:12:38.995Z,5.62
2022-11-30T07:13:38.916Z,5.62
2022-11-30T07:14:38.859Z,5.62
2022-11-30T07:15:38.894Z,5.62
2022-11-30T07:16:38.922Z,5.62
2022-11-30T07:17:38.884Z,5.62
2022-11-30T07:18:38.983Z,5.62
2022-11-30T07:19:38.902Z,5.62
2022-11-30T07:20:38.821Z,5.62
2022-11-30T07:21:38.790Z,5.62
2022-11-30T07:22:38.816Z,5.62
2022-11-30T07:23:38.905Z,5.62
2022-11-30T07:24:38.905Z,5.62
2022-11-30T07:25:38.804Z,11.25
2022-11-30T07:26:38.764Z,11.25
2022-11-30T07:27:38.765Z,11.25
2022-11-30T07:28:39.047Z,11.25
2022-11-30T07:29:38.736Z,11.25
2022-11-30T07:30:38.705Z,11.25
2022-11-30T07:31:38.739Z,11.25
2022-11-30T07:32:38.712Z,11.25
2022-11-30T07:33:38.788Z,11.25
2022-11-30T07:34:38.661Z,11.25
2022-11-30T07:35:38.646Z,11.25
2022-11-30T07:36:38.645Z,11.25
2022-11-30T07:37:38.651Z,16.88
2022-11-30T07:38:38.646Z,16.88
2022-11-30T07:39:38.652Z,16.88
2022-11-30T07:40:38.628Z,16.88
2022-11-30T07:41:38.657Z,16.88
2022-11-30T07:42:38.697Z,16.88
2022-11-30T07:43:38.610Z,16.88
2022-11-30T07:44:38.597Z,16.88
2022-11-30T07:45:38.972Z,16.88
2022-11-30T07:46:38.528Z,16.88
2022-11-30T07:47:38.554Z,16.88
2022-11-30T07:48:38.558Z,16.88
2022-11-30T07:49:38.572Z,16.88
2022-11-30T07:50:38.814Z,22.50
2022-11-30T07:51:38.591Z,22.50
2022-11-30T07:52:38.604Z,22.50
2022-11-30T07:53:38.458Z,22.50
2022-11-30T07:54:38.475Z,22.50
2022-11-30T07:55:38.502Z,22.50
2022-11-30T07:56:38.546Z,22.50
2022-11-30T07:57:38.551Z,22.50
2022-11-30T07:58:38.545Z,22.50
2022-11-30T07:59:38.441Z,22.50
2022-11-30T08:00:38.445Z,28.12
2022-11-30T08:01:38.550Z,28.12
2022-11-30T08:02:38.418Z,28.12
2022-11-30T08:03:38.432Z,28.12
2022-11-30T08:04:38.485Z,28.12
2022-11-30T08:05:38.416Z,33.75
2022-11-30T08:06:38.351Z,33.75
2022-11-30T08:07:38.424Z,33.75
2022-11-30T08:08:38.391Z,33.75
2022-11-30T08:09:38.326Z,39.38
2022-11-30T08:10:38.321Z,39.38
2022-11-30T08:11:38.315Z,39.38
2022-11-30T08:12:38.319Z,45.00
2022-11-30T08:13:38.310Z,45.00
2022-11-30T08:15:11.019Z,45.00
2022-11-30T08:15:39.285Z,50.62
2022-11-30T08:16:38.346Z,50.62
2022-11-30T08:17:38.285Z,50.62
2022-11-30T08:18:38.250Z,50.62
2022-11-30T08:19:38.232Z,56.25
2022-11-30T08:20:38.332Z,56.25
2022-11-30T08:21:38.228Z,56.25
2022-11-30T08:22:38.323Z,61.88
2022-11-30T08:23:38.242Z,61.88
2022-11-30T08:24:38.234Z,61.88
2022-11-30T08:25:38.173Z,61.88
2022-11-30T08:26:38.169Z,67.50
2022-11-30T08:27:38.163Z,67.50
2022-11-30T08:28:38.175Z,67.50
2022-11-30T08:29:38.125Z,67.50
2022-11-30T08:30:38.448Z,67.50
2022-11-30T08:31:38.314Z,73.12
2022-11-30T08:32:38.129Z,73.12
2022-11-30T08:33:38.080Z,73.12
2022-11-30T08:34:38.077Z,73.12
2022-11-30T08:35:38.144Z,73.12
2022-11-30T08:36:38.071Z,73.12
2022-11-30T08:37:38.175Z,73.12
2022-11-30T08:38:38.096Z,73.12
2022-11-30T08:39:38.056Z,78.75
2022-11-30T08:40:38.020Z,78.75
2022-11-30T08:41:37.985Z,78.75
2022-11-30T08:42:38.022Z,78.75
2022-11-30T08:43:38.072Z,78.75
2022-11-30T08:44:37.986Z,78.75
2022-11-30T08:45:38.010Z,78.75
2022-11-30T08:46:53.646Z,78.75
2022-11-30T08:47:39.091Z,73.12
2022-11-30T08:48:37.941Z,73.12
2022-11-30T08:49:38.075Z,73.12
2022-11-30T08:50:37.912Z,73.12
2022-11-30T08:52:08.879Z,73.12
2022-11-30T08:52:38.897Z,73.12
2022-11-30T08:53:37.910Z,73.12
2022-11-30T08:54:37.909Z,73.12
2022-11-30T08:55:37.938Z,73.12
2022-11-30T08:56:37.895Z,73.12
2022-11-30T08:57:37.910Z,73.12
2022-11-30T08:58:37.884Z,73.12
2022-11-30T08:59:37.827Z,73.12
2022-11-30T09:00:37.838Z,73.12
2022-11-30T09:01:37.806Z,73.12
2022-11-30T09:02:37.850Z,73.12
2022-11-30T09:03:37.769Z,73.12
2022-11-30T09:04:37.880Z,73.12
2022-11-30T09:05:37.835Z,73.12
2022-11-30T09:06:37.778Z,73.12
2022-11-30T09:07:38.085Z,73.12
2022-11-30T09:08:40.910Z,78.75
2022-11-30T09:09:37.784Z,78.75
2022-11-30T09:10:37.756Z,78.75
2022-11-30T09:11:37.695Z,78.75
2022-11-30T09:12:37.821Z,78.75
2022-11-30T09:13:37.724Z,84.38
2022-11-30T09:14:37.745Z,84.38
2022-11-30T09:15:37.756Z,84.38
2022-11-30T09:16:37.692Z,84.38
2022-11-30T09:17:37.629Z,84.38
2022-11-30T09:18:37.665Z,84.38
2022-11-30T09:19:37.676Z,90.00
2022-11-30T09:20:37.639Z,90.00
2022-11-30T09:21:37.627Z,90.00
2022-11-30T09:22:37.663Z,95.62
2022-11-30T09:23:37.601Z,101.25
2022-11-30T09:24:37.595Z,101.25
2022-11-30T09:25:37.606Z,101.25
2022-11-30T09:26:37.698Z,106.88
2022-11-30T09:27:37.613Z,106.88
2022-11-30T09:28:37.701Z,112.50
2022-11-30T09:29:37.610Z,112.50
2022-11-30T09:30:37.669Z,112.50
2022-11-30T09:31:37.517Z,112.50
2022-11-30T09:32:37.524Z,118.12
2022-11-30T09:33:37.493Z,118.12
2022-11-30T09:34:37.695Z,118.12
2022-11-30T09:35:37.456Z,118.12
2022-11-30T09:36:37.467Z,118.12
2022-11-30T09:37:37.765Z,118.12
2022-11-30T09:38:37.453Z,118.12
2022-11-30T09:39:37.539Z,118.12
2022-11-30T09:40:37.407Z,118.12
2022-11-30T09:41:37.427Z,118.12
2022-11-30T09:42:37.433Z,123.75
2022-11-30T09:43:37.383Z,123.75
2022-11-30T09:44:37.437Z,123.75
2022-11-30T09:45:37.463Z,123.75
2022-11-30T09:46:37.388Z,123.75
2022-11-30T09:47:37.335Z,123.75
2022-11-30T09:48:37.497Z,123.75
2022-11-30T09:49:37.395Z,123.75
2022-11-30T09:50:37.308Z,123.75
2022-11-30T09:51:37.324Z,123.75
2022-11-30T09:52:37.362Z,129.38
2022-11-30T09:53:37.529Z,123.75
2022-11-30T09:54:37.360Z,129.38
2022-11-30T09:55:37.271Z,129.38
2022-11-30T09:56:37.268Z,123.75
2022-11-30T09:57:37.369Z,129.38
2022-11-30T09:58:37.306Z,129.38
2022-11-30T09:59:37.573Z,129.38
2022-11-30T10:00:37.199Z,129.38
2022-11-30T10:01:37.875Z,129.38
2022-11-30T10:02:37.474Z,135.00
2022-11-30T10:03:37.246Z,135.00
2022-11-30T10:04:37.188Z,135.00
2022-11-30T10:05:37.144Z,135.00
2022-11-30T10:06:37.280Z,135.00
2022-11-30T10:07:37.208Z,140.62
2022-11-30T10:08:37.237Z,140.62
2022-11-30T10:09:37.186Z,140.62
2022-11-30T10:10:37.238Z,140.62
2022-11-30T10:11:37.108Z,140.62
2022-11-30T10:12:37.183Z,146.25
2022-11-30T10:13:37.138Z,146.25
2022-11-30T10:14:37.073Z,146.25
2022-11-30T10:15:37.117Z,151.88
2022-11-30T10:16:37.035Z,146.25
2022-11-30T10:17:37.105Z,146.25
2022-11-30T10:18:37.230Z,146.25
2022-11-30T10:19:37.156Z,146.25
2022-11-30T10:20:37.069Z,140.62
2022-11-30T10:21:37.116Z,140.62
2022-11-30T10:22:37.049Z,140.62
2022-11-30T10:23:37.029Z,140.62
2022-11-30T10:24:36.987Z,140.62
2022-11-30T10:25:37.028Z,140.62
2022-11-30T10:26:36.981Z,140.62
2022-11-30T10:27:36.967Z,140.62
2022-11-30T10:28:52.382Z,140.62
2022-11-30T10:29:37.912Z,140.62
2022-11-30T10:30:36.931Z,146.25
2022-11-30T10:31:36.994Z,146.25
2022-11-30T10:32:37.156Z,146.25
2022-11-30T10:33:38.659Z,146.25
2022-11-30T10:34:37.016Z,151.88
2022-11-30T10:35:36.877Z,151.88
2022-11-30T10:36:36.910Z,157.50
2022-11-30T10:37:37.298Z,151.88
2022-11-30T10:38:36.844Z,151.88
2022-11-30T10:39:36.868Z,157.50
2022-11-30T10:40:36.926Z,157.50
2022-11-30T10:41:36.787Z,163.12
2022-11-30T10:42:36.884Z,163.12
2022-11-30T10:43:36.795Z,163.12
2022-11-30T10:44:36.886Z,157.50
2022-11-30T10:45:36.818Z,163.12
2022-11-30T10:46:36.937Z,157.50
2022-11-30T10:47:36.794Z,157.50
2022-11-30T10:48:36.793Z,157.50
2022-11-30T10:49:36.728Z,157.50
2022-11-30T10:50:36.722Z,157.50
2022-11-30T10:51:36.759Z,157.50
2022-11-30T10:52:36.680Z,157.50
2022-11-30T10:53:36.822Z,157.50
2022-11-30T10:54:36.704Z,157.50
2022-11-30T10:55:36.663Z,151.88
2022-11-30T10:56:37.350Z,151.88
2022-11-30T10:57:36.749Z,151.88
2022-11-30T10:58:36.730Z,151.88
2022-11-30T10:59:36.618Z,151.88
2022-11-30T11:00:36.634Z,151.88
2022-11-30T11:01:36.686Z,151.88
2022-11-30T11:02:36.701Z,151.88
2022-11-30T11:03:36.571Z,151.88
2022-11-30T11:04:36.558Z,151.88
2022-11-30T11:05:36.570Z,151.88
2022-11-30T11:06:36.656Z,151.88
2022-11-30T11:07:36.652Z,151.88
2022-11-30T11:08:36.652Z,151.88
2022-11-30T11:09:36.625Z,151.88
2022-11-30T11:10:36.590Z,146.25
2022-11-30T11:11:36.522Z,146.25
2022-11-30T11:12:36.555Z,146.25
2022-11-30T11:13:36.581Z,146.25
2022-11-30T11:14:38.286Z,146.25
2022-11-30T11:15:36.653Z,146.25
2022-11-30T11:16:36.522Z,146.25
2022-11-30T11:17:36.530Z,146.25
2022-11-30T11:18:36.475Z,146.25
2022-11-30T11:19:36.448Z,146.25
2022-11-30T11:20:36.402Z,146.25
2022-11-30T11:21:36.425Z,146.25
2022-11-30T11:22:36.528Z,146.25
2022-11-30T11:23:36.434Z,146.25
2022-11-30T11:24:36.448Z,146.25
2022-11-30T11:25:36.388Z,146.25
2022-11-30T11:26:36.469Z,146.25
2022-11-30T11:27:39.901Z,146.25
2022-11-30T11:28:37.371Z,146.25
2022-11-30T11:29:36.327Z,146.25
2022-11-30T11:30:36.307Z,140.62
2022-11-30T11:31:36.415Z,140.62
2022-11-30T11:32:36.293Z,140.62
2022-11-30T11:33:36.305Z,140.62
2022-11-30T11:34:36.259Z,146.25
2022-11-30T11:35:36.382Z,146.25
2022-11-30T11:36:36.266Z,146.25
2022-11-30T11:37:36.374Z,146.25
2022-11-30T11:38:36.237Z,146.25
2022-11-30T11:39:36.227Z,146.25
2022-11-30T11:40:36.319Z,146.25
2022-11-30T11:41:36.259Z,146.25
2022-11-30T11:42:36.318Z,146.25
2022-11-30T11:43:36.228Z,146.25
2022-11-30T11:44:36.201Z,140.62
2022-11-30T11:45:36.264Z,140.62
2022-11-30T11:46:36.225Z,140.62
2022-11-30T11:47:36.588Z,140.62
2022-11-30T11:48:36.287Z,140.62
2022-11-30T11:49:36.130Z,135.00
2022-11-30T11:51:06.234Z,135.00
2022-11-30T11:51:37.102Z,135.00
2022-11-30T11:52:36.165Z,135.00
2022-11-30T11:53:42.675Z,135.00
2022-11-30T11:54:37.088Z,135.00
2022-11-30T11:55:36.068Z,135.00
2022-11-30T11:56:36.069Z,135.00
2022-11-30T11:57:36.498Z,129.38
2022-11-30T11:58:36.039Z,129.38
2022-11-30T11:59:36.188Z,129.38
2022-11-30T12:00:36.155Z,129.38
2022-11-30T12:01:40.808Z,129.38
2022-11-30T12:02:37.257Z,129.38
2022-11-30T12:03:36.015Z,129.38
2022-11-30T12:04:36.079Z,129.38
2022-11-30T12:05:36.073Z,129.38
2022-11-30T12:06:36.120Z,129.38
2022-11-30T12:07:35.982Z,129.38
2022-11-30T12:08:35.952Z,129.38
2022-11-30T12:09:35.971Z,129.38
2022-11-30T12:10:52.835Z,129.38
2022-11-30T12:11:36.919Z,129.38
2022-11-30T12:12:37.371Z,129.38
2022-11-30T12:13:35.880Z,129.38
2022-11-30T12:14:35.860Z,123.75
2022-11-30T12:15:35.889Z,123.75
2022-11-30T12:16:36.013Z,123.75
2022-11-30T12:17:35.832Z,123.75
2022-11-30T12:18:35.833Z,123.75
2022-11-30T12:19:35.823Z,118.12
2022-11-30T12:20:35.825Z,118.12
2022-11-30T12:21:35.845Z,118.12
2022-11-30T12:22:35.774Z,118.12
2022-11-30T12:23:35.784Z,118.12
2022-11-30T12:24:35.855Z,112.50
2022-11-30T12:25:35.860Z,112.50
2022-11-30T12:26:35.759Z,112.50
2022-11-30T12:27:35.761Z,112.50
2022-11-30T12:28:35.715Z,112.50
2022-11-30T12:29:35.823Z,112.50
2022-11-30T12:30:35.718Z,112.50
2022-11-30T12:31:35.758Z,112.50
2022-11-30T12:32:35.743Z,112.50
2022-11-30T12:33:35.714Z,112.50
2022-11-30T12:34:35.728Z,112.50
2022-11-30T12:35:35.679Z,112.50
2022-11-30T12:36:35.695Z,112.50
2022-11-30T12:37:35.640Z,112.50
2022-11-30T12:38:35.816Z,112.50
2022-11-30T12:39:35.670Z,112.50
2022-11-30T12:40:35.650Z,112.50
2022-11-30T12:41:35.673Z,112.50
2022-11-30T12:42:35.611Z,112.50
2022-11-30T12:43:35.594Z,106.88
2022-11-30T12:44:41.626Z,106.88
2022-11-30T12:45:36.876Z,106.88
2022-11-30T12:46:35.610Z,106.88
2022-11-30T12:47:35.565Z,106.88
2022-11-30T12:48:35.586Z,106.88
2022-11-30T12:49:35.547Z,106.88
2022-11-30T12:50:35.550Z,106.88
2022-11-30T12:51:35.554Z,106.88
2022-11-30T12:52:35.499Z,106.88
2022-11-30T12:53:35.511Z,101.25
2022-11-30T12:54:35.479Z,101.25
2022-11-30T12:55:35.488Z,101.25
2022-11-30T12:56:35.466Z,101.25
2022-11-30T12:57:35.431Z,101.25
2022-11-30T12:58:35.492Z,101.25
2022-11-30T12:59:35.611Z,101.25
2022-11-30T13:00:35.471Z,101.25